Windsor Airport
CYQG : now visible

Airfield :











YOU CAN JOIN US ON...

 
LOGIN :

Register | Disclaimer

   EN    FR    IT 

 









Legend :    VFR   Marginal VFR   IFR   Intensive IFR   Very Intensive IFR
Visi :
Ceiling :
>= 8 km
>= 3000ft
5 to 8 km
1000 to 3000 ft
1500m to 5 km
500 to 1000 ft
800 to 1500m
200 to 500 ft
< 800m
< 200 ft
Symbols :   Thunderstorms  Fog  Heavy snow  Heavy precipitations  Wind > 20 kt







- Airport Elevation : 622 ft
- IATA code : YQG


CYQG - Windsor

CURRENT METAR :
  • 201600Z AUTO 18004KT 150V240 9SM CLR 25/19 A3016 RMK SLP213 DENSITY ALT 1600FT

EXPIRED METARs :
  • 201500Z AUTO 22005KT 180V250 9SM CLR 23/18 A3017 RMK SLP215 DENSITY ALT 1400FT

TAF TAF CYQG
Valid from the 20 at 12:00 until the 21 at 12:00 UTC


201138Z 2012/2112 15005KT P6SM SCT220
TEMPO 2012/2013 5SM BR
FM201500 18006KT P6SM FEW050 SCT200
FM210600 VRB03KT P6SM SCT060 RMK FCST BASED ON AUTO OBS. NXT FCST BY 201800Z
No reported NOTAMs for that airfield.



MET'MAP, your aeronautical weather chart ! - Copyright ORBIFLY December 2007 - Disclaimer

ORBIFLY MET'MAP TEAM :

Programming & Development : Alexandra Zaïnal
Concept & Development : Baudouin d'Aumeries
Co-Development & Prog : Marc-Olivier Méhu
Technical & hardware support : Manuel Goepfert

Contact : metmap@orbifly.com




SOURCES & CREDITS :

   NOAA       Earth
Advisory